<?xml version="1.0" encoding="utf-8"?>
<gpx xmlns:xsi="http://www.w3.org/2001/XMLSchema-instance" xmlns:xsd="http://www.w3.org/2001/XMLSchema" version="1.1" creator="Shapelink.com" xmlns="http://www.topografix.com/GPX/1/1" xmlns:gpxtpx="http://www.garmin.com/xmlschemas/TrackPointExtension/v1">
  <metadata>
    <name>Crosstrainer 8.00 km, 2016-02-22</name>
    <desc></desc>
    <author><name>Stefan Östlund</name></author> 
    <time>2016-02-22T06:30:29Z</time>
  </metadata>
  <trk>
    <name>Crosstrainer 8.00 km, 2016-02-22</name>
    <trkseg>
      <trkpt lat="59.984746993782" lon="15.827192412408">
        <ele>78.4</ele>
        <time>2016-02-22T06:30:29Z</time>
      </trkpt>
      <trkpt lat="59.984717908589" lon="15.827395505845">
        <ele>78.8</ele>
        <time>2016-02-22T06:34:51Z</time>
      </trkpt>
      <trkpt lat="59.984617996341" lon="15.827440097553">
        <ele>78.8</ele>
        <time>2016-02-22T06:36:41Z</time>
      </trkpt>
      <trkpt lat="59.984807008186" lon="15.827351668508">
        <ele>78.8</ele>
        <time>2016-02-22T06:40:15Z</time>
      </trkpt>
      <trkpt lat="59.984623025481" lon="15.827311686845">
        <ele>78.8</ele>
        <time>2016-02-22T06:42:59Z</time>
      </trkpt>
      <trkpt lat="59.984692846708" lon="15.827415538586">
        <ele>78.8</ele>
        <time>2016-02-22T06:46:51Z</time>
      </trkpt>
      <trkpt lat="59.984573153176" lon="15.827581667844">
        <ele>78.8</ele>
        <time>2016-02-22T06:49:05Z</time>
      </trkpt>
      <trkpt lat="59.984718579141" lon="15.827578231265">
        <ele>78.8</ele>
        <time>2016-02-22T06:51:58Z</time>
      </trkpt>
      <trkpt lat="59.984764260496" lon="15.827497513568">
        <ele>78.8</ele>
        <time>2016-02-22T06:54:46Z</time>
      </trkpt>
      <trkpt lat="59.984655211977" lon="15.827524000372">
        <ele>78.8</ele>
        <time>2016-02-22T06:57:46Z</time>
      </trkpt>
      <trkpt lat="59.984693265803" lon="15.827485443632">
        <ele>78.8</ele>
        <time>2016-02-22T07:00:48Z</time>
      </trkpt>
      <trkpt lat="59.984718914417" lon="15.82749064041">
        <ele>78.8</ele>
        <time>2016-02-22T07:03:26Z</time>
      </trkpt>
      <trkpt lat="59.984790495843" lon="15.827434146404">
        <ele>78.8</ele>
        <time>2016-02-22T07:06:08Z</time>
      </trkpt>
      <trkpt lat="59.984721428987" lon="15.827424591038">
        <ele>78.8</ele>
        <time>2016-02-22T07:09:29Z</time>
      </trkpt>
      <trkpt lat="59.984674406528" lon="15.827309256094">
        <ele>78.8</ele>
        <time>2016-02-22T07:11:11Z</time>
      </trkpt>
      <trkpt lat="59.984697372934" lon="15.827412772559">
        <ele>78.8</ele>
        <time>2016-02-22T07:12:55Z</time>
      </trkpt>
    </trkseg>
  </trk>
</gpx>